Walnut, California
Current Conditions -  °F | °C
As of 8:53 PM on Monday 20 Oct 2014 (Local Time) from KCNO Reporting Station
Clear Clear  
Wind Chill: 66°   Ceiling: Unl
Heat Index: 66°   Visibility: 9mi
Dew Point: 60°   Wind: 7mph
Humidity: 81%   Direction: 280°W
Pressure: 29.91"   Gusts: NA
Location:  34.03°N, 117.84°W
Report Text: KCNO 210353Z 28006KT 9SM CLR 19/16 A2991 RMK AO2 SLP126 T01890156
Loading
Personal Weather Stations






























Interactive Weather Map New forecast layout! Learn more

10-Day Weather Forecast

Advertisements
Track Severe Weather on mobile